Time;durP1;ratioP1;P1;durP2;ratioP2;P2;SDS_P1;SDS_P2;PMS_P1;PMS_P2;Temp;Humidity;BMP_temperature;BMP_pressure;BME280_temperature;BME280_humidity;BME280_pressure;Samples;Min_cycle;Max_cycle;Signal;HPM_P1;HPM_P2
2023/10/05 00:01:02;90635.00;0.30;157.40;0.00;0.00;0.62;;;;;15.70;1.00;;;;;;2272615;61;1574;-86
2023/10/05 00:03:29;109138.00;0.36;189.34;42051.00;0.14;73.44;;;;;15.40;1.00;;;;;;2272622;61;1564;-86
2023/10/05 00:06:03;64949.00;0.22;113.03;0.00;0.00;0.62;;;;;15.20;1.00;;;;;;2272676;61;1248;-87
2023/10/05 00:08:31;2882.00;0.01;5.62;0.00;0.00;0.62;;;;;15.30;1.00;;;;;;2272512;61;1139;-88
2023/10/05 00:11:00;16318.00;0.05;28.89;0.00;0.00;0.62;;;;;15.20;1.00;;;;;;2272616;61;1288;-87
2023/10/05 00:13:32;103814.00;0.35;180.15;0.00;0.00;0.62;;;;;15.40;1.00;;;;;;2272603;61;1923;-85
2023/10/05 00:15:59;413811.00;1.38;713.55;56382.00;0.19;98.22;;;;;15.50;1.00;;;;;;2272696;61;1102;-86
2023/10/05 00:18:26;173001.00;0.58;299.44;10637.00;0.04;19.05;;;;;15.30;1.00;;;;;;2272616;61;1029;-87
2023/10/05 00:20:54;130018.00;0.43;225.36;27498.00;0.09;48.25;;;;;15.00;1.00;;;;;;2272610;61;1384;-86
2023/10/05 00:23:21;24736.00;0.08;43.47;0.00;0.00;0.62;;;;;14.80;1.00;;;;;;2272589;61;1111;-86
2023/10/05 00:25:50;8582.00;0.03;15.49;0.00;0.00;0.62;;;;;14.70;1.00;;;;;;2272595;61;1107;-88
2023/10/05 00:28:23;67219.00;0.22;116.95;0.00;0.00;0.62;;;;;14.30;1.00;;;;;;2272459;61;1093;-87
2023/10/05 00:30:52;240184.00;0.80;415.07;62443.00;0.21;108.70;;;;;13.70;1.00;;;;;;2272656;61;1468;-87
2023/10/05 00:33:20;0.00;0.00;0.62;0.00;0.00;0.62;;;;;13.60;1.00;;;;;;2272526;61;2013;-86
2023/10/05 00:35:47;0.00;0.00;0.62;0.00;0.00;0.62;;;;;13.90;1.00;;;;;;2272494;61;1146;-86
2023/10/05 00:38:18;135807.00;0.45;235.34;0.00;0.00;0.62;;;;;14.40;1.00;;;;;;2272471;61;1184;-86
2023/10/05 00:40:55;58734.00;0.20;102.29;0.00;0.00;0.62;;;;;14.50;1.00;;;;;;2272540;61;1379;-88
2023/10/05 00:43:24;33089.00;0.11;57.93;0.00;0.00;0.62;;;;;14.30;1.00;;;;;;2272539;61;1152;-86
2023/10/05 00:45:53;116813.00;0.39;202.58;35608.00;0.12;62.29;;;;;14.40;1.00;;;;;;2272571;61;1102;-89
2023/10/05 00:48:29;0.00;0.00;0.62;0.00;0.00;0.62;;;;;14.50;1.00;;;;;;2272526;61;1090;-86
2023/10/05 00:50:59;132098.00;0.44;228.95;64402.00;0.21;112.09;;;;;14.70;1.00;;;;;;2272473;61;1316;-87
2023/10/05 00:53:28;33866.00;0.11;59.27;0.00;0.00;0.62;;;;;14.70;1.00;;;;;;2272460;61;2014;-87
2023/10/05 00:56:07;77897.00;0.26;135.40;0.00;0.00;0.62;;;;;14.80;1.00;;;;;;2272438;61;1156;-88
2023/10/05 00:58:42;212771.00;0.71;367.90;71355.00;0.24;124.10;;;;;15.00;1.00;;;;;;2272550;61;1078;-86
2023/10/05 01:01:15;164834.00;0.55;285.37;24609.00;0.08;43.25;;;;;15.20;1.00;;;;;;2272480;61;1450;-86
2023/10/05 01:04:11;44211.00;0.15;77.17;0.00;0.00;0.62;;;;;15.70;1.00;;;;;;2272455;61;1186;-86
2023/10/05 01:06:40;249576.00;0.83;431.22;80295.00;0.27;139.55;;;;;16.30;1.00;;;;;;2272522;61;1116;-86
2023/10/05 01:09:14;154955.00;0.52;268.35;60304.00;0.20;105.00;;;;;16.40;1.00;;;;;;2272494;61;1287;-86
2023/10/05 01:11:43;11159.00;0.04;19.96;0.00;0.00;0.62;;;;;16.60;1.00;;;;;;2272441;61;1471;-84
2023/10/05 01:14:16;70880.00;0.24;123.28;0.00;0.00;0.62;;;;;16.50;1.00;;;;;;2272432;61;2006;-84
2023/10/05 01:16:45;88812.00;0.30;154.26;0.00;0.00;0.62;;;;;16.40;1.00;;;;;;2272389;61;1157;-83
2023/10/05 01:19:12;0.00;0.00;0.62;0.00;0.00;0.62;;;;;16.70;1.00;;;;;;2272304;61;1002;-84
2023/10/05 01:21:42;0.00;0.00;0.62;0.00;0.00;0.62;;;;;17.00;1.00;;;;;;2272268;61;1366;-83
2023/10/05 01:24:11;0.00;0.00;0.62;0.00;0.00;0.62;;;;;17.00;1.00;;;;;;2272396;61;1035;-84
2023/10/05 01:26:38;26097.00;0.09;45.83;0.00;0.00;0.62;;;;;17.10;1.00;;;;;;2272520;61;1079;-83
2023/10/05 01:29:06;0.00;0.00;0.62;0.00;0.00;0.62;;;;;17.20;1.00;;;;;;2272463;61;1094;-84
2023/10/05 01:31:33;73296.00;0.24;127.46;0.00;0.00;0.62;;;;;16.80;1.00;;;;;;2272356;61;1288;-85
2023/10/05 01:34:01;70670.00;0.24;122.92;0.00;0.00;0.62;;;;;16.80;1.00;;;;;;2272243;61;2026;-86
2023/10/05 01:36:28;4652.00;0.02;8.68;0.00;0.00;0.62;;;;;16.40;1.00;;;;;;2272422;61;1629;-86
2023/10/05 01:39:01;72316.00;0.24;125.76;0.00;0.00;0.62;;;;;16.80;1.00;;;;;;2272426;61;1098;-85
2023/10/05 01:41:29;25514.00;0.09;44.82;0.00;0.00;0.62;;;;;17.00;1.00;;;;;;2272385;61;1497;-82
2023/10/05 01:44:00;33475.00;0.11;58.60;0.00;0.00;0.62;;;;;16.90;1.00;;;;;;2272333;61;1037;-85
2023/10/05 01:46:31;35515.00;0.12;62.13;0.00;0.00;0.62;;;;;16.60;1.00;;;;;;2272261;61;2138;-83
2023/10/05 01:48:57;64989.00;0.22;113.10;0.00;0.00;0.62;;;;;16.40;1.00;;;;;;2272385;61;1094;-84
2023/10/05 01:51:25;59197.00;0.20;103.09;0.00;0.00;0.62;;;;;16.70;1.00;;;;;;2272260;61;1260;-83
2023/10/05 01:53:52;0.00;0.00;0.62;0.00;0.00;0.62;;;;;16.80;1.00;;;;;;2272137;61;2004;-84
2023/10/05 01:56:20;54683.00;0.18;95.28;0.00;0.00;0.62;;;;;17.00;1.00;;;;;;2272346;61;1113;-83
2023/10/05 01:58:50;0.00;0.00;0.62;0.00;0.00;0.62;;;;;16.60;1.00;;;;;;2272325;61;1104;-83
2023/10/05 02:01:18;58000.00;0.19;101.02;0.00;0.00;0.62;;;;;16.60;1.00;;;;;;2272271;61;1307;-83
2023/10/05 02:03:45;43257.00;0.14;75.52;0.00;0.00;0.62;;;;;16.70;1.00;;;;;;2272274;61;1256;-86
2023/10/05 02:06:13;3777.00;0.01;7.17;0.00;0.00;0.62;;;;;16.70;1.00;;;;;;2272208;61;1147;-86
2023/10/05 02:08:41;0.00;0.00;0.62;0.00;0.00;0.62;;;;;17.00;1.00;;;;;;2272283;61;1181;-86
2023/10/05 02:11:09;56472.00;0.19;98.38;0.00;0.00;0.62;;;;;17.00;1.00;;;;;;2272277;61;1383;-87
2023/10/05 02:13:37;14051.00;0.05;24.97;0.00;0.00;0.62;;;;;16.90;1.00;;;;;;2272268;61;2017;-85
2023/10/05 02:16:14;118443.00;0.39;205.40;0.00;0.00;0.62;;;;;16.90;1.00;;;;;;2272248;61;998;-86
2023/10/05 02:18:41;96418.00;0.32;167.39;0.00;0.00;0.62;;;;;16.70;1.00;;;;;;2272209;61;1180;-86
2023/10/05 02:21:17;56061.00;0.19;97.67;0.00;0.00;0.62;;;;;16.30;1.00;;;;;;2272142;61;1289;-89
2023/10/05 02:23:44;48822.00;0.16;85.15;0.00;0.00;0.62;;;;;16.10;1.00;;;;;;2273466;61;1096;-88
2023/10/05 02:26:23;3543.00;0.01;6.76;0.00;0.00;0.62;;;;;16.10;1.00;;;;;;2276139;61;1158;-84
2023/10/05 02:28:51;48126.00;0.16;83.95;0.00;0.00;0.62;;;;;15.70;1.00;;;;;;2276216;61;1176;-86
2023/10/05 02:31:20;0.00;0.00;0.62;0.00;0.00;0.62;;;;;15.80;1.00;;;;;;2276360;61;1388;-84
2023/10/05 02:33:47;291793.00;0.97;503.81;101156.00;0.34;175.57;;;;;15.60;1.00;;;;;;2276830;61;1931;-85
2023/10/05 02:36:20;56605.00;0.19;98.61;0.00;0.00;0.62;;;;;15.20;1.00;;;;;;2276884;61;1095;-84
2023/10/05 02:38:53;55996.00;0.19;97.55;0.00;0.00;0.62;;;;;14.60;1.00;;;;;;2276966;61;1115;-85
2023/10/05 02:41:25;294.00;0.00;1.13;0.00;0.00;0.62;;;;;13.90;1.00;;;;;;2276817;61;1459;-84
2023/10/05 02:43:53;75899.00;0.25;131.95;0.00;0.00;0.62;;;;;13.60;1.00;;;;;;2276867;61;1055;-85
2023/10/05 02:46:24;0.00;0.00;0.62;0.00;0.00;0.62;;;;;13.00;1.00;;;;;;2276807;61;1142;-84
2023/10/05 02:48:51;94557.00;0.32;164.18;0.00;0.00;0.62;;;;;12.80;1.00;;;;;;2276813;61;1666;-86
2023/10/05 02:51:18;14794.00;0.05;26.25;0.00;0.00;0.62;;;;;13.10;1.00;;;;;;2276004;61;1375;-85
2023/10/05 02:53:46;49392.00;0.16;86.13;0.00;0.00;0.62;;;;;13.20;1.00;;;;;;2272812;61;1926;-85
2023/10/05 02:56:22;78273.00;0.26;136.05;0.00;0.00;0.62;;;;;13.50;1.00;;;;;;2272735;61;1172;-85
2023/10/05 02:58:54;0.00;0.00;0.62;0.00;0.00;0.62;;;;;13.90;1.00;;;;;;2272671;61;1041;-85
2023/10/05 03:01:23;0.00;0.00;0.62;0.00;0.00;0.62;;;;;14.10;1.00;;;;;;2272848;61;1415;-85
2023/10/05 03:03:52;81708.00;0.27;141.99;0.00;0.00;0.62;;;;;14.30;1.00;;;;;;2273058;61;1159;-87
2023/10/05 03:06:22;54206.00;0.18;94.46;0.00;0.00;0.62;;;;;14.30;1.00;;;;;;2273078;61;954;-85
2023/10/05 03:08:54;28866.00;0.10;50.62;0.00;0.00;0.62;;;;;13.80;1.00;;;;;;2273062;61;1145;-85
2023/10/05 03:11:21;56545.00;0.19;98.50;0.00;0.00;0.62;;;;;13.80;1.00;;;;;;2272958;61;1374;-85
2023/10/05 03:13:48;89859.00;0.30;156.06;0.00;0.00;0.62;;;;;14.20;1.00;;;;;;2273016;61;1921;-87
2023/10/05 03:16:16;68954.00;0.23;119.95;0.00;0.00;0.62;;;;;14.80;1.00;;;;;;2272950;61;1582;-85
2023/10/05 03:18:48;0.00;0.00;0.62;0.00;0.00;0.62;;;;;15.20;1.00;;;;;;2272880;61;953;-86
2023/10/05 03:21:17;168648.00;0.56;291.94;23498.00;0.08;41.33;;;;;14.90;1.00;;;;;;2272861;61;1708;-85
2023/10/05 03:23:44;27722.00;0.09;48.64;0.00;0.00;0.62;;;;;14.50;1.00;;;;;;2272900;61;1114;-84
2023/10/05 03:26:13;59946.00;0.20;104.38;0.00;0.00;0.62;;;;;14.30;1.00;;;;;;2272949;61;1142;-85
2023/10/05 03:28:41;0.00;0.00;0.62;0.00;0.00;0.62;;;;;14.10;1.00;;;;;;2272876;61;1004;-86
2023/10/05 03:31:14;190719.00;0.64;329.95;53350.00;0.18;92.98;;;;;14.10;1.00;;;;;;2272913;61;1305;-86
2023/10/05 03:33:42;184914.00;0.62;319.95;28856.00;0.10;50.60;;;;;13.80;1.00;;;;;;2272912;61;1932;-85
2023/10/05 03:36:14;7463.00;0.02;13.55;0.00;0.00;0.62;;;;;13.70;1.00;;;;;;2272904;61;1039;-86
2023/10/05 03:38:42;116448.00;0.39;201.95;12196.00;0.04;21.75;;;;;13.70;1.00;;;;;;2272962;61;1223;-85
2023/10/05 03:41:15;156530.00;0.52;271.06;0.00;0.00;0.62;;;;;13.60;1.00;;;;;;2272857;61;1329;-87
2023/10/05 03:43:44;20774.00;0.07;36.61;0.00;0.00;0.62;;;;;13.90;1.00;;;;;;2272573;61;1024;-84
2023/10/05 03:46:11;132169.00;0.44;229.07;0.00;0.00;0.62;;;;;14.00;1.00;;;;;;2272743;61;970;-83
2023/10/05 03:48:39;28202.00;0.09;49.47;0.00;0.00;0.62;;;;;14.00;1.00;;;;;;2272740;61;1284;-85
2023/10/05 03:51:15;10428.00;0.03;18.69;0.00;0.00;0.62;;;;;14.30;1.00;;;;;;2272828;61;1372;-85
2023/10/05 03:53:48;0.00;0.00;0.62;0.00;0.00;0.62;;;;;14.80;1.00;;;;;;2272775;61;2225;-86
2023/10/05 03:56:18;7250.00;0.02;13.18;0.00;0.00;0.62;;;;;14.80;1.00;;;;;;2272868;61;1036;-84
2023/10/05 03:58:46;15462.00;0.05;27.41;0.00;0.00;0.62;;;;;14.60;1.00;;;;;;2272800;61;1131;-86
2023/10/05 04:01:13;9606.00;0.03;17.27;0.00;0.00;0.62;;;;;14.60;1.00;;;;;;2272713;61;1406;-87
2023/10/05 04:03:40;172236.00;0.57;298.12;0.00;0.00;0.62;;;;;14.80;1.00;;;;;;2272826;61;1074;-87
2023/10/05 04:06:17;147332.00;0.49;255.21;37104.00;0.12;64.88;;;;;14.80;1.00;;;;;;2272785;61;1078;-86
2023/10/05 04:08:47;0.00;0.00;0.62;0.00;0.00;0.62;;;;;14.80;1.00;;;;;;2272830;61;1150;-87
2023/10/05 04:11:15;54305.00;0.18;94.63;0.00;0.00;0.62;;;;;14.90;1.00;;;;;;2272669;61;1485;-84
2023/10/05 04:13:42;39702.00;0.13;69.37;0.00;0.00;0.62;;;;;14.80;1.00;;;;;;2272668;61;1915;-86
2023/10/05 04:16:17;82507.00;0.28;143.37;0.00;0.00;0.62;;;;;15.00;1.00;;;;;;2272691;61;1560;-86
2023/10/05 04:18:46;98260.00;0.33;170.57;31245.00;0.10;54.74;;;;;14.40;1.00;;;;;;2272789;61;1065;-87
2023/10/05 04:21:13;183703.00;0.61;317.87;20842.00;0.07;36.73;;;;;14.30;1.00;;;;;;2272708;61;1633;-87
2023/10/05 04:23:42;0.00;0.00;0.62;0.00;0.00;0.62;;;;;14.30;1.00;;;;;;2272778;61;1170;-86
2023/10/05 04:26:10;215126.00;0.72;371.96;26488.00;0.09;46.50;;;;;14.60;1.00;;;;;;2272595;61;1048;-86
2023/10/05 04:28:41;237.00;0.00;1.03;0.00;0.00;0.62;;;;;14.60;1.00;;;;;;2272643;61;1123;-86
2023/10/05 04:31:12;31653.00;0.11;55.44;0.00;0.00;0.62;;;;;14.40;1.00;;;;;;2272605;61;1424;-85
2023/10/05 04:33:42;329193.00;1.10;568.10;95966.00;0.32;166.61;;;;;14.20;1.00;;;;;;2272619;61;1063;-85
2023/10/05 04:36:10;21511.00;0.07;37.89;0.00;0.00;0.62;;;;;13.70;1.00;;;;;;2272730;61;1131;-85
2023/10/05 04:38:37;137018.00;0.46;237.43;0.00;0.00;0.62;;;;;13.60;1.00;;;;;;2272769;61;1087;-85
2023/10/05 04:41:05;38379.00;0.13;67.08;0.00;0.00;0.62;;;;;14.00;1.00;;;;;;2272592;61;1373;-88
2023/10/05 04:43:34;50270.00;0.17;87.65;0.00;0.00;0.62;;;;;14.50;1.00;;;;;;2272630;61;1084;-84
2023/10/05 04:46:05;0.00;0.00;0.62;0.00;0.00;0.62;;;;;14.50;1.00;;;;;;2272730;61;1125;-85
2023/10/05 04:48:32;40725.00;0.14;71.14;0.00;0.00;0.62;;;;;14.40;1.00;;;;;;2272649;61;1117;-87
2023/10/05 04:51:00;106030.00;0.35;183.98;0.00;0.00;0.62;;;;;14.00;1.00;;;;;;2272646;61;1420;-85
2023/10/05 04:53:27;0.00;0.00;0.62;0.00;0.00;0.62;;;;;13.80;1.00;;;;;;2272665;61;1153;-85
2023/10/05 04:56:00;0.00;0.00;0.62;0.00;0.00;0.62;;;;;13.90;1.00;;;;;;2272571;61;1931;-87
2023/10/05 04:58:43;13858.00;0.05;24.63;0.00;0.00;0.62;;;;;13.90;1.00;;;;;;2272467;61;1446;-84
2023/10/05 05:01:28;0.00;0.00;0.62;0.00;0.00;0.62;;;;;14.30;1.00;;;;;;2272628;61;1376;-85
2023/10/05 05:04:12;140326.00;0.47;243.13;0.00;0.00;0.62;;;;;14.90;1.00;;;;;;2272467;61;1727;-84
2023/10/05 05:06:41;0.00;0.00;0.62;0.00;0.00;0.62;;;;;15.10;1.00;;;;;;2272652;61;1231;-84
2023/10/05 05:09:12;0.00;0.00;0.62;0.00;0.00;0.62;;;;;15.60;1.00;;;;;;2272774;61;1180;-86
2023/10/05 05:11:40;65429.00;0.22;113.86;0.00;0.00;0.62;;;;;15.80;1.00;;;;;;2272458;61;1555;-84
2023/10/05 05:14:07;0.00;0.00;0.62;0.00;0.00;0.62;;;;;15.90;1.00;;;;;;2272743;61;2013;-85
2023/10/05 05:16:36;20554.00;0.07;36.23;0.00;0.00;0.62;;;;;15.90;1.00;;;;;;2272725;61;1148;-86
2023/10/05 05:19:04;13679.00;0.05;24.32;0.00;0.00;0.62;;;;;16.00;1.00;;;;;;2272574;61;2197;-84
2023/10/05 05:21:30;0.00;0.00;0.62;0.00;0.00;0.62;;;;;15.70;1.00;;;;;;2272598;61;1512;-86
2023/10/05 05:23:58;0.00;0.00;0.62;0.00;0.00;0.62;;;;;15.80;1.00;;;;;;2272676;61;1076;-85
2023/10/05 05:26:25;0.00;0.00;0.62;0.00;0.00;0.62;;;;;15.70;1.00;;;;;;2272601;61;1018;-85
2023/10/05 05:28:53;87797.00;0.29;152.50;0.00;0.00;0.62;;;;;15.30;1.00;;;;;;2272621;61;1029;-85
2023/10/05 05:31:21;80023.00;0.27;139.08;0.00;0.00;0.62;;;;;15.10;1.00;;;;;;2272602;61;1268;-86
2023/10/05 05:33:49;0.00;0.00;0.62;0.00;0.00;0.62;;;;;15.50;1.00;;;;;;2272643;61;1127;-86
2023/10/05 05:36:17;39299.00;0.13;68.68;0.00;0.00;0.62;;;;;15.90;1.00;;;;;;2272444;61;2010;-85
2023/10/05 05:38:47;180021.00;0.60;311.53;32356.00;0.11;56.66;;;;;16.00;1.00;;;;;;2272357;61;1508;-85
2023/10/05 05:41:16;0.00;0.00;0.62;0.00;0.00;0.62;;;;;16.40;1.00;;;;;;2272338;61;1445;-84
2023/10/05 05:43:43;48633.00;0.16;84.82;0.00;0.00;0.62;;;;;16.60;1.00;;;;;;2272539;61;1101;-85
2023/10/05 05:46:12;0.00;0.00;0.62;0.00;0.00;0.62;;;;;16.70;1.00;;;;;;2272555;61;1205;-85
2023/10/05 05:48:40;87436.00;0.29;151.88;14563.00;0.05;25.85;;;;;16.90;1.00;;;;;;2272371;61;1103;-83
2023/10/05 05:51:13;50646.00;0.17;88.30;0.00;0.00;0.62;;;;;16.70;1.00;;;;;;2272455;61;1301;-85
2023/10/05 05:53:41;91391.00;0.30;158.71;24229.00;0.08;42.59;;;;;17.10;1.00;;;;;;2272403;61;1066;-82
2023/10/05 05:56:08;92469.00;0.31;160.57;0.00;0.00;0.62;;;;;17.00;1.00;;;;;;2272418;61;1936;-84
2023/10/05 05:58:38;10659.00;0.04;19.09;0.00;0.00;0.62;;;;;17.20;1.00;;;;;;2272442;61;1188;-84
2023/10/05 06:01:07;48574.00;0.16;84.72;0.00;0.00;0.62;;;;;17.10;1.00;;;;;;2272533;61;1292;-85
2023/10/05 06:03:34;0.00;0.00;0.62;0.00;0.00;0.62;;;;;16.80;1.00;;;;;;2272499;61;1113;-82
2023/10/05 06:06:03;14434.00;0.05;25.63;0.00;0.00;0.62;;;;;16.60;1.00;;;;;;2272098;61;1452;-84
2023/10/05 06:08:31;36599.00;0.12;64.00;0.00;0.00;0.62;;;;;16.70;1.00;;;;;;2272228;61;1121;-84
2023/10/05 06:10:58;0.00;0.00;0.62;0.00;0.00;0.62;;;;;17.00;1.00;;;;;;2272298;61;1375;-83
2023/10/05 06:13:25;59801.00;0.20;104.13;0.00;0.00;0.62;;;;;17.10;1.00;;;;;;2272500;61;1177;-84
2023/10/05 06:15:52;130415.00;0.43;226.04;0.00;0.00;0.62;;;;;17.30;1.00;;;;;;2272372;61;2005;-83
2023/10/05 06:18:19;76322.00;0.25;132.68;0.00;0.00;0.62;;;;;17.40;1.00;;;;;;2272327;61;2074;-83
2023/10/05 06:20:47;37782.00;0.13;66.05;0.00;0.00;0.62;;;;;17.20;1.00;;;;;;2272277;61;1386;-83
2023/10/05 06:23:14;0.00;0.00;0.62;0.00;0.00;0.62;;;;;17.20;1.00;;;;;;2272218;61;1235;-84
2023/10/05 06:25:44;19841.00;0.07;34.99;0.00;0.00;0.62;;;;;17.40;1.00;;;;;;2272444;61;999;-82
2023/10/05 06:28:12;0.00;0.00;0.62;0.00;0.00;0.62;;;;;17.50;1.00;;;;;;2272271;61;1128;-84
2023/10/05 06:30:39;19523.00;0.07;34.44;0.00;0.00;0.62;;;;;17.30;1.00;;;;;;2272392;61;1294;-86
2023/10/05 06:33:08;107709.00;0.36;186.88;28643.00;0.10;50.23;;;;;16.80;1.00;;;;;;2272423;61;1056;-85
2023/10/05 06:35:34;43844.00;0.15;76.54;0.00;0.00;0.62;;;;;16.80;1.00;;;;;;2272048;61;2004;-88
2023/10/05 06:38:01;0.00;0.00;0.62;0.00;0.00;0.62;;;;;16.70;1.00;;;;;;2271493;61;1055;-88
2023/10/05 06:40:29;178629.00;0.60;309.13;55050.00;0.18;95.92;;;;;16.70;1.00;;;;;;2272218;61;1285;-84
2023/10/05 06:43:00;0.00;0.00;0.62;0.00;0.00;0.62;;;;;16.60;1.00;;;;;;2272404;61;1114;-83
2023/10/05 06:45:27;66894.00;0.22;116.39;0.00;0.00;0.62;;;;;16.80;1.00;;;;;;2272585;61;1016;-86
2023/10/05 06:47:54;196913.00;0.66;340.61;76701.00;0.26;133.34;;;;;16.50;1.00;;;;;;2272366;61;1012;-84
2023/10/05 06:50:21;14930.00;0.05;26.49;0.00;0.00;0.62;;;;;16.50;1.00;;;;;;2272432;61;1292;-84
2023/10/05 06:52:48;74013.00;0.25;128.69;0.00;0.00;0.62;;;;;16.60;1.00;;;;;;2272371;61;1123;-83
2023/10/05 06:55:17;38392.00;0.13;67.11;0.00;0.00;0.62;;;;;16.70;1.00;;;;;;2272253;61;2010;-84
2023/10/05 06:57:45;0.00;0.00;0.62;0.00;0.00;0.62;;;;;16.90;1.00;;;;;;2272395;61;1157;-85
2023/10/05 07:00:20;133004.00;0.44;230.51;0.00;0.00;0.62;;;;;17.10;1.00;;;;;;2272353;61;1342;-84
2023/10/05 07:02:47;0.00;0.00;0.62;0.00;0.00;0.62;;;;;17.30;1.00;;;;;;2272238;61;1115;-84
2023/10/05 07:05:14;62695.00;0.21;109.14;0.00;0.00;0.62;;;;;17.40;1.00;;;;;;2272451;61;1168;-85
2023/10/05 07:07:41;0.00;0.00;0.62;0.00;0.00;0.62;;;;;17.20;1.00;;;;;;2272379;61;1047;-83
2023/10/05 07:10:09;129521.00;0.43;224.50;0.00;0.00;0.62;;;;;17.30;1.00;;;;;;2272354;61;1473;-84
2023/10/05 07:12:38;25065.00;0.08;44.04;0.00;0.00;0.62;;;;;17.30;1.00;;;;;;2272311;61;1048;-84
2023/10/05 07:15:06;76823.00;0.26;133.55;0.00;0.00;0.62;;;;;17.20;1.00;;;;;;2272109;61;2013;-84
2023/10/05 07:17:34;0.00;0.00;0.62;0.00;0.00;0.62;;;;;17.40;1.00;;;;;;2272532;61;1120;-85
2023/10/05 07:20:02;31329.00;0.10;54.88;0.00;0.00;0.62;;;;;17.70;1.00;;;;;;2272970;61;1388;-86
2023/10/05 07:22:29;1404.00;0.00;3.05;0.00;0.00;0.62;;;;;17.70;1.00;;;;;;2273068;61;1068;-85
2023/10/05 07:24:57;93720.00;0.31;162.73;0.00;0.00;0.62;;;;;17.50;1.00;;;;;;2272983;61;1076;-85
2023/10/05 07:27:23;229961.00;0.77;397.48;96346.00;0.32;167.26;;;;;17.30;1.00;;;;;;2273029;61;1019;-84
2023/10/05 07:29:50;34060.00;0.11;59.61;0.00;0.00;0.62;;;;;17.20;1.00;;;;;;2272773;61;1122;-82
2023/10/05 07:32:17;137534.00;0.46;238.32;14108.00;0.05;25.07;;;;;17.50;1.00;;;;;;2272951;61;1199;-84
2023/10/05 07:34:45;0.00;0.00;0.62;0.00;0.00;0.62;;;;;17.80;1.00;;;;;;2272778;61;2008;-84
2023/10/05 07:37:12;22634.00;0.08;39.83;0.00;0.00;0.62;;;;;18.00;1.00;;;;;;2272884;61;1017;-85
2023/10/05 07:39:40;63347.00;0.21;110.26;0.00;0.00;0.62;;;;;18.20;1.00;;;;;;2272912;61;1218;-83
2023/10/05 07:42:09;16401.00;0.05;29.04;0.00;0.00;0.62;;;;;17.80;1.00;;;;;;2272784;61;1286;-84
2023/10/05 07:44:37;0.00;0.00;0.62;0.00;0.00;0.62;;;;;17.00;1.00;;;;;;2272967;61;2361;-85
2023/10/05 07:47:04;32460.00;0.11;56.84;0.00;0.00;0.62;;;;;17.30;1.00;;;;;;2272910;61;1107;-83
2023/10/05 07:49:34;37255.00;0.12;65.14;0.00;0.00;0.62;;;;;17.30;1.00;;;;;;2272822;61;1131;-88
2023/10/05 07:57:02;236633.00;0.79;408.96;0.00;0.00;0.62;;;;;18.10;1.00;;;;;;2270537;61;1969;-89
2023/10/05 08:06:54;225809.00;0.75;390.34;0.00;0.00;0.62;;;;;17.40;1.00;;;;;;2309799;41;3520;-87
2023/10/05 08:44:10;220605.00;0.74;381.38;0.00;0.00;0.62;;;;;18.20;1.00;;;;;;2289077;55;3649;-87
2023/10/05 09:01:35;287614.00;0.96;496.63;0.00;0.00;0.62;;;;;19.80;1.00;;;;;;2269879;61;1367;-89
2023/10/05 09:04:13;142273.00;0.47;246.49;34193.00;0.11;59.84;;;;;19.50;1.00;;;;;;2268485;61;1548;-88
2023/10/05 09:09:27;275769.00;0.92;476.26;0.00;0.00;0.62;;;;;19.30;1.00;;;;;;2274032;61;1395;-87
2023/10/05 09:11:56;95204.00;0.32;165.29;0.00;0.00;0.62;;;;;18.70;1.00;;;;;;2272659;61;1496;-86
2023/10/05 09:17:07;0.00;0.00;0.62;0.00;0.00;0.62;;;;;19.40;1.00;;;;;;2270183;61;1911;-88
2023/10/05 09:19:34;58913.00;0.20;102.60;0.00;0.00;0.62;;;;;19.90;1.00;;;;;;2268685;61;1265;-87
2023/10/05 09:24:30;162161.00;0.54;280.76;0.00;0.00;0.62;;;;;20.00;1.00;;;;;;2284479;40;3540;-88
2023/10/05 09:34:41;433101.00;1.44;746.72;0.00;0.00;0.62;;;;;19.60;1.00;;;;;;2294894;41;3475;-89
2023/10/05 09:52:08;799163.00;2.66;1379.66;0.00;0.00;0.62;;;;;21.50;1.00;;;;;;2274266;61;1385;-90
2023/10/05 09:54:37;425561.00;1.42;733.75;7905.00;0.03;14.32;;;;;21.50;1.00;;;;;;2272327;61;2211;-88
2023/10/05 09:57:10;501765.00;1.67;864.86;0.00;0.00;0.62;;;;;21.30;1.00;;;;;;2272392;61;2011;-87
2023/10/05 10:02:12;429734.00;1.43;740.93;0.00;0.00;0.62;;;;;20.20;1.00;;;;;;2274219;61;1398;-88
2023/10/05 10:09:39;747910.00;2.49;1290.42;0.00;0.00;0.62;;;;;20.60;1.00;;;;;;2273984;61;1380;-89
2023/10/05 10:14:36;801874.00;2.67;1384.39;0.00;0.00;0.62;;;;;20.50;1.00;;;;;;2270240;61;1413;-88
2023/10/05 10:17:08;617328.00;2.06;1064.15;80839.00;0.27;140.49;;;;;20.70;1.00;;;;;;2268365;61;1927;-87
2023/10/05 10:27:09;550277.00;1.83;948.44;86195.00;0.29;149.74;;;;;21.50;1.00;;;;;;2269349;40;3531;-88
2023/10/05 10:29:45;268513.00;0.90;463.79;0.00;0.00;0.62;;;;;21.30;1.00;;;;;;2276696;40;3588;-89
2023/10/05 10:37:10;120940.00;0.40;209.70;0.00;0.00;0.62;;;;;21.90;1.00;;;;;;2274099;61;1906;-88
2023/10/05 10:39:37;90724.00;0.30;157.56;24623.00;0.08;43.27;;;;;21.30;1.00;;;;;;2272450;61;1182;-90
2023/10/05 10:44:57;405209.00;1.35;698.76;0.00;0.00;0.62;;;;;21.70;1.00;;;;;;2270070;61;1398;-88
2023/10/05 10:47:26;118517.00;0.40;205.52;0.00;0.00;0.62;;;;;21.60;1.00;;;;;;2287382;41;3632;-87
2023/10/05 10:50:11;0.00;0.00;0.62;0.00;0.00;0.62;;;;;21.90;1.00;;;;;;2276317;61;1745;-89
2023/10/05 10:52:37;16566.00;0.06;29.32;0.00;0.00;0.62;;;;;22.30;1.00;;;;;;2272513;61;948;-90
2023/10/05 10:57:36;338180.00;1.13;583.55;0.00;0.00;0.62;;;;;22.10;1.00;;;;;;2266734;61;2010;-89
2023/10/05 11:20:23;238719.00;0.80;412.55;0.00;0.00;0.62;;;;;22.20;1.00;;;;;;2279465;40;3520;-90
2023/10/05 11:30:21;775662.00;2.59;1338.71;47713.00;0.16;83.23;;;;;22.70;1.00;;;;;;2270828;61;1411;-89
2023/10/05 11:45:18;977918.00;3.26;1693.40;34723.00;0.12;60.76;;;;;22.60;1.00;;;;;;1486853;56;3489;-90
2023/10/05 11:47:51;537782.00;1.79;926.90;0.00;0.00;0.62;;;;;22.70;1.00;;;;;;2278746;55;3753;-90
2023/10/05 12:12:41;586112.00;1.95;1010.25;105906.00;0.35;183.77;;;;;21.80;1.00;;;;;;2281544;55;3682;-87
2023/10/05 12:20:12;582653.00;1.94;1004.28;0.00;0.00;0.62;;;;;21.90;1.00;;;;;;2274556;61;1404;-90
2023/10/05 12:22:40;598442.00;1.99;1031.53;45355.00;0.15;79.15;;;;;21.70;1.00;;;;;;2272807;61;1163;-89
2023/10/05 12:25:08;493047.00;1.64;849.85;0.00;0.00;0.62;;;;;21.20;1.00;;;;;;2272731;61;1078;-88
2023/10/05 12:30:11;691750.00;2.31;1192.94;0.00;0.00;0.62;;;;;21.90;1.00;;;;;;2270455;61;1410;-88
2023/10/05 12:37:37;730872.00;2.44;1260.82;0.00;0.00;0.62;;;;;22.30;1.00;;;;;;2284531;55;3635;-89
2023/10/05 12:40:17;474430.00;1.58;817.81;15858.00;0.05;28.10;;;;;22.10;1.00;;;;;;2323536;40;3575;-88
2023/10/05 12:50:12;846538.00;2.82;1462.41;39504.00;0.13;69.03;;;;;22.70;1.00;;;;;;2266089;61;1415;-90
2023/10/05 12:52:40;426503.00;1.42;735.37;12829.00;0.04;22.85;;;;;22.80;1.00;;;;;;2264470;61;1093;-90
2023/10/05 13:02:34;1559070.00;5.20;2754.77;23715.00;0.08;41.70;;;;;22.40;1.00;;;;;;2283886;40;3477;-91
2023/10/05 13:10:09;981204.00;3.27;1699.21;0.00;0.00;0.62;;;;;22.50;1.00;;;;;;2269910;61;1405;-88
2023/10/05 13:12:36;464948.00;1.55;801.50;35344.00;0.12;61.83;;;;;22.30;1.00;;;;;;2264493;61;995;-89
2023/10/05 13:17:35;562191.00;1.87;968.98;0.00;0.00;0.62;;;;;22.80;1.00;;;;;;2270103;61;1908;-89
2023/10/05 13:22:33;796453.00;2.65;1374.94;13579.00;0.05;24.15;;;;;23.10;1.00;;;;;;2271223;61;1322;-90
2023/10/05 13:24:59;495309.00;1.65;853.75;0.00;0.00;0.62;;;;;23.30;1.00;;;;;;2268504;61;1070;-89
2023/10/05 13:32:27;886007.00;2.95;1531.56;74083.00;0.25;128.82;;;;;23.20;1.00;;;;;;742104;41;3433;-89
2023/10/05 13:37:23;786055.00;2.62;1356.81;126569.00;0.42;219.41;;;;;23.40;1.00;;;;;;2265852;61;1896;-88
2023/10/05 13:42:26;743628.00;2.48;1282.98;96650.00;0.32;167.79;;;;;23.00;1.00;;;;;;2274075;61;1363;-92
2023/10/05 13:47:23;364561.00;1.22;628.89;48925.00;0.16;85.33;;;;;23.20;1.00;;;;;;2299603;40;3536;-91
2023/10/05 13:57:28;998667.00;3.33;1730.11;74396.00;0.25;129.36;;;;;22.50;1.00;;;;;;2281031;40;3362;-91
2023/10/05 14:07:27;813639.00;2.71;1404.92;32722.00;0.11;57.29;;;;;22.80;1.00;;;;;;2280912;40;3672;-89
2023/10/05 14:09:55;681315.00;2.27;1174.85;67230.00;0.22;116.97;;;;;22.70;1.00;;;;;;2276451;61;1058;-90
2023/10/05 14:27:21;616079.00;2.05;1061.99;0.00;0.00;0.62;;;;;22.60;1.00;;;;;;2279394;40;3535;-92
2023/10/05 14:32:19;1060269.00;3.53;1839.51;63108.00;0.21;109.85;;;;;22.10;1.00;;;;;;2269985;61;1413;-88
2023/10/05 14:42:17;925290.00;3.08;1600.58;166110.00;0.55;287.57;;;;;21.70;1.00;;;;;;2269885;61;1416;-88
2023/10/05 14:47:19;1407538.00;4.69;2470.31;92412.00;0.31;160.47;;;;;22.10;1.00;;;;;;2270091;61;1294;-89
2023/10/05 14:52:16;1208868.00;4.03;2106.26;30056.00;0.10;52.68;;;;;21.80;1.00;;;;;;2270385;61;1349;-88